Time;durP1;ratioP1;P1;durP2;ratioP2;P2;SDS_P1;SDS_P2;PMS_P1;PMS_P2;Temp;Humidity;BMP_temperature;BMP_pressure;BME280_temperature;BME280_humidity;BME280_pressure;Samples;Min_cycle;Max_cycle;Signal;HPM_P1;HPM_P2
2021/05/22 00:00:21;;;;;;;1.97;0.87;;;;;;;12.49;56.91;99089.53;5092891;28;20371;-77
2021/05/22 00:02:47;;;;;;;2.67;0.90;;;;;;;12.49;56.56;99089.53;5092215;28;20210;-80
2021/05/22 00:05:13;;;;;;;3.23;1.20;;;;;;;12.51;56.60;99078.06;5093881;28;20204;-78
2021/05/22 00:07:39;;;;;;;1.70;0.70;;;;;;;12.51;55.96;99083.28;5094729;28;20667;-80
2021/05/22 00:10:10;;;;;;;2.97;1.00;;;;;;;12.58;55.97;99090.84;5093282;28;20258;-79
2021/05/22 00:12:36;;;;;;;1.87;0.60;;;;;;;12.60;55.95;99089.84;5093450;28;20760;-78
2021/05/22 00:15:02;;;;;;;1.70;1.00;;;;;;;12.63;56.56;99094.09;5092873;28;20233;-79
2021/05/22 00:17:28;;;;;;;0.90;0.60;;;;;;;12.63;56.53;99089.69;5094024;28;20211;-79
2021/05/22 00:19:53;;;;;;;1.83;0.87;;;;;;;12.54;56.05;99091.91;5093135;28;20787;-79
2021/05/22 00:22:19;;;;;;;2.83;1.20;;;;;;;12.48;57.09;99093.91;5093703;28;20250;-79
2021/05/22 00:24:45;;;;;;;3.30;0.80;;;;;;;12.51;56.18;99093.75;5094276;28;20309;-80
2021/05/22 00:27:12;;;;;;;1.90;0.97;;;;;;;12.58;57.00;99096.91;5094359;28;20232;-79
2021/05/22 00:29:38;;;;;;;2.47;0.83;;;;;;;12.59;57.05;99095.19;5093745;28;20224;-79
2021/05/22 00:32:04;;;;;;;2.67;0.90;;;;;;;12.55;59.91;99096.22;5096304;28;20203;-79
2021/05/22 00:34:30;;;;;;;1.73;0.80;;;;;;;12.51;59.03;99104.22;5092933;28;20224;-79
2021/05/22 00:36:56;;;;;;;2.50;0.70;;;;;;;12.51;59.62;99098.16;5094879;28;20237;-80
2021/05/22 00:39:22;;;;;;;2.77;0.83;;;;;;;12.50;59.72;99091.22;5094652;28;20224;-80
2021/05/22 00:41:48;;;;;;;2.03;0.70;;;;;;;12.43;58.39;99088.06;5094993;28;20764;-80
2021/05/22 00:44:14;;;;;;;3.80;1.00;;;;;;;12.42;59.04;99091.59;5094205;28;20681;-80
2021/05/22 00:46:40;;;;;;;1.50;0.80;;;;;;;12.42;58.81;99090.75;5093039;28;20211;-79
2021/05/22 00:49:06;;;;;;;2.47;1.00;;;;;;;12.40;58.63;99085.56;5093205;28;20255;-80
2021/05/22 00:51:32;;;;;;;2.50;0.90;;;;;;;12.40;58.99;99082.97;5092991;28;20219;-79
2021/05/22 00:53:58;;;;;;;2.13;1.00;;;;;;;12.37;59.66;99095.34;5092759;28;20310;-80
2021/05/22 00:56:24;;;;;;;2.20;0.80;;;;;;;12.36;58.61;99091.88;5093265;28;20404;-79
2021/05/22 00:58:50;;;;;;;1.73;0.80;;;;;;;12.35;58.56;99087.59;5093758;28;20251;-79
2021/05/22 01:01:17;;;;;;;3.50;0.80;;;;;;;12.31;58.73;99081.66;5093422;28;20230;-80
2021/05/22 01:03:45;;;;;;;2.17;0.90;;;;;;;12.27;59.69;99089.72;5092578;28;20219;-79
2021/05/22 01:06:14;;;;;;;1.57;0.80;;;;;;;12.27;58.81;99084.50;5093028;28;20684;-80
2021/05/22 01:08:44;;;;;;;2.30;0.90;;;;;;;12.23;58.58;99078.56;5093755;28;20253;-79
2021/05/22 01:11:13;;;;;;;3.10;1.40;;;;;;;12.19;58.58;99073.50;5093189;28;20264;-80
2021/05/22 01:13:41;;;;;;;2.80;0.85;;;;;;;12.26;59.15;99072.31;5091733;28;20464;-79
2021/05/22 01:16:08;;;;;;;2.20;0.93;;;;;;;12.24;58.53;99064.53;5092623;28;20218;-79
2021/05/22 01:18:35;;;;;;;3.00;0.97;;;;;;;12.17;58.46;99068.38;5092825;28;20654;-80
2021/05/22 01:21:04;;;;;;;2.67;1.20;;;;;;;12.12;58.46;99067.75;5090286;28;20215;-78
2021/05/22 01:23:33;;;;;;;2.23;1.00;;;;;;;12.11;57.96;99068.69;5091242;28;20200;-79
2021/05/22 01:26:00;;;;;;;1.03;0.60;;;;;;;12.08;57.64;99063.56;5091711;28;20285;-79
2021/05/22 01:28:27;;;;;;;3.43;0.87;;;;;;;11.97;57.11;99069.31;5090197;28;20633;-78
2021/05/22 01:30:53;;;;;;;1.97;0.80;;;;;;;12.00;57.71;99068.31;5091977;28;20200;-78
2021/05/22 01:33:21;;;;;;;2.93;0.87;;;;;;;11.96;59.01;99074.63;5090449;28;20199;-79
2021/05/22 01:35:48;;;;;;;2.13;0.63;;;;;;;11.88;59.08;99074.94;5091332;28;20207;-78
2021/05/22 01:38:14;;;;;;;1.50;0.70;;;;;;;11.89;58.82;99077.53;5091070;28;20210;-78
2021/05/22 01:40:40;;;;;;;1.97;0.70;;;;;;;11.81;59.11;99081.34;5090821;28;20199;-79
2021/05/22 01:43:08;;;;;;;3.83;0.90;;;;;;;11.79;58.76;99085.81;5091595;28;20211;-78
2021/05/22 01:45:38;;;;;;;2.13;1.07;;;;;;;11.77;59.06;99087.66;5090479;28;20686;-78
2021/05/22 01:48:06;;;;;;;2.33;0.80;;;;;;;11.79;58.77;99080.59;5090911;28;20589;-79
2021/05/22 01:50:33;;;;;;;1.97;1.10;;;;;;;11.75;59.65;99084.25;5091087;28;20279;-80
2021/05/22 01:53:05;;;;;;;3.63;0.90;;;;;;;11.63;60.39;99080.44;5091217;28;20230;-80
2021/05/22 01:55:33;;;;;;;1.77;1.00;;;;;;;11.51;59.95;99087.91;5092325;28;20232;-79
2021/05/22 01:57:58;;;;;;;1.30;0.53;;;;;;;11.43;59.63;99089.16;5091726;28;20521;-79
2021/05/22 02:00:27;;;;;;;2.30;0.70;;;;;;;11.42;58.98;99090.94;5091266;28;20230;-80
2021/05/22 02:02:57;;;;;;;1.10;0.80;;;;;;;11.45;59.96;99085.56;5090657;28;20569;-78
2021/05/22 02:05:24;;;;;;;1.57;1.00;;;;;;;11.44;59.94;99089.09;5091389;28;20202;-78
2021/05/22 02:07:52;;;;;;;0.77;0.50;;;;;;;11.42;59.78;99092.72;5091497;28;20268;-79
2021/05/22 02:10:19;;;;;;;1.13;0.60;;;;;;;11.39;59.32;99085.00;5091063;28;20622;-79
2021/05/22 02:12:47;;;;;;;1.77;0.80;;;;;;;11.39;59.49;99085.84;5091360;28;20215;-80
2021/05/22 02:15:15;;;;;;;1.10;0.50;;;;;;;11.41;58.81;99088.38;5091017;28;20236;-79
2021/05/22 02:17:45;;;;;;;1.10;0.60;;;;;;;11.32;59.96;99090.50;5092191;28;20210;-79
2021/05/22 02:20:14;;;;;;;1.00;0.50;;;;;;;11.30;60.04;99084.47;5090556;28;20463;-79
2021/05/22 02:22:42;;;;;;;1.60;0.60;;;;;;;11.31;60.01;99075.72;5091046;28;20213;-78
2021/05/22 02:25:09;;;;;;;2.27;0.70;;;;;;;11.32;59.78;99081.81;5092021;28;20203;-79
2021/05/22 02:27:36;;;;;;;1.40;0.57;;;;;;;11.36;60.34;99090.34;5091439;28;20210;-80
2021/05/22 02:30:06;;;;;;;0.93;0.50;;;;;;;11.21;60.23;99084.88;5091012;28;20223;-79
2021/05/22 02:32:33;;;;;;;0.60;0.50;;;;;;;11.22;60.60;99078.75;5090977;28;20206;-79
2021/05/22 02:35:02;;;;;;;0.77;0.50;;;;;;;11.15;60.66;99079.91;5090908;28;20249;-79
2021/05/22 02:37:32;;;;;;;1.40;0.50;;;;;;;11.17;61.09;99075.47;5091162;28;20214;-78
2021/05/22 02:40:00;;;;;;;0.50;0.47;;;;;;;11.11;61.08;99080.97;5091277;28;20221;-79
2021/05/22 02:42:30;;;;;;;3.17;0.77;;;;;;;11.11;61.21;99084.41;5091244;28;20233;-78
2021/05/22 02:44:59;;;;;;;2.10;0.70;;;;;;;11.09;61.55;99080.19;5087866;28;20232;-79
2021/05/22 02:47:28;;;;;;;1.07;0.70;;;;;;;11.03;61.91;99083.06;5089903;28;20211;-79
2021/05/22 02:50:02;;;;;;;2.07;0.47;;;;;;;10.99;61.92;99078.88;5089534;28;20253;-79
2021/05/22 02:52:30;;;;;;;0.87;0.60;;;;;;;10.97;62.31;99085.94;5089093;28;20245;-79
2021/05/22 02:54:57;;;;;;;0.50;0.40;;;;;;;10.98;62.52;99079.78;5087590;28;20223;-78
2021/05/22 02:57:24;;;;;;;1.63;0.80;;;;;;;10.87;62.61;99068.03;5090664;28;20199;-80
2021/05/22 02:59:51;;;;;;;1.20;0.50;;;;;;;10.92;62.43;99068.72;5090216;28;20226;-79
2021/05/22 03:02:17;;;;;;;1.00;0.93;;;;;;;10.91;63.16;99061.78;5089853;28;20309;-78
2021/05/22 03:04:44;;;;;;;2.00;0.60;;;;;;;10.80;63.76;99065.75;5090734;28;20255;-80
2021/05/22 03:07:11;;;;;;;1.17;0.60;;;;;;;10.58;64.10;99071.84;5090405;28;20712;-79
2021/05/22 03:09:37;;;;;;;1.13;0.50;;;;;;;10.60;63.90;99074.41;5089346;28;20637;-79
2021/05/22 03:12:04;;;;;;;1.23;0.70;;;;;;;10.60;64.74;99072.63;5089835;28;20271;-79
2021/05/22 03:14:29;;;;;;;1.67;0.53;;;;;;;10.53;64.89;99068.59;5089556;28;20224;-79
2021/05/22 03:16:57;;;;;;;1.30;0.67;;;;;;;10.46;64.80;99073.19;5089891;28;20752;-79
2021/05/22 03:19:22;;;;;;;2.17;1.10;;;;;;;10.44;65.22;99077.63;5091866;28;20318;-80
2021/05/22 03:21:48;;;;;;;1.27;0.60;;;;;;;10.47;65.18;99079.28;5094537;28;20267;-78
2021/05/22 03:24:15;;;;;;;2.30;0.60;;;;;;;10.43;65.57;99080.34;5093728;28;20584;-79
2021/05/22 03:26:42;;;;;;;1.10;0.60;;;;;;;10.37;66.25;99068.38;5094399;28;20204;-80
2021/05/22 03:29:08;;;;;;;1.07;0.73;;;;;;;10.44;65.79;99071.56;5093095;28;20377;-79
2021/05/22 03:31:34;;;;;;;2.37;0.90;;;;;;;10.42;65.97;99063.81;5092282;28;20571;-79
2021/05/22 03:34:00;;;;;;;1.50;0.50;;;;;;;10.45;65.85;99068.06;5093066;28;20238;-78
2021/05/22 03:36:26;;;;;;;2.00;0.90;;;;;;;10.40;66.13;99070.00;5093422;28;20791;-79
2021/05/22 03:38:51;;;;;;;2.57;0.97;;;;;;;10.34;66.66;99069.31;5092993;28;20265;-79
2021/05/22 03:41:18;;;;;;;2.83;0.70;;;;;;;10.37;66.48;99076.19;5094021;28;20204;-79
2021/05/22 03:43:44;;;;;;;1.10;0.60;;;;;;;10.36;66.22;99078.88;5093418;28;20219;-79
2021/05/22 03:46:10;;;;;;;2.50;0.90;;;;;;;10.44;66.02;99087.22;5092850;28;20202;-79
2021/05/22 03:48:36;;;;;;;1.60;0.63;;;;;;;10.44;66.39;99082.00;5093845;28;20717;-79
2021/05/22 03:51:02;;;;;;;2.97;0.90;;;;;;;10.41;66.67;99076.94;5093429;28;20234;-78
2021/05/22 03:53:28;;;;;;;1.80;0.80;;;;;;;10.41;65.89;99069.94;5093348;28;20258;-80
2021/05/22 03:55:54;;;;;;;1.83;0.80;;;;;;;10.29;66.56;99067.81;5093325;28;20264;-80
2021/05/22 03:58:20;;;;;;;1.07;0.70;;;;;;;10.38;67.05;99080.50;5093407;28;20203;-79
2021/05/22 04:00:46;;;;;;;1.67;0.67;;;;;;;10.40;67.06;99077.84;5093116;28;20252;-79
2021/05/22 04:03:12;;;;;;;1.43;0.60;;;;;;;10.42;66.66;99076.00;5092382;28;20655;-79
2021/05/22 04:05:38;;;;;;;3.23;0.90;;;;;;;10.35;67.07;99078.03;5093544;28;20251;-80
2021/05/22 04:08:04;;;;;;;2.13;0.80;;;;;;;10.36;67.08;99082.31;5093027;28;20844;-79
2021/05/22 04:10:30;;;;;;;2.23;0.90;;;;;;;10.41;66.70;99079.53;5093200;28;20233;-78
2021/05/22 04:12:56;;;;;;;0.73;0.53;;;;;;;10.44;66.92;99077.63;5092194;28;20264;-79
2021/05/22 04:15:23;;;;;;;2.40;0.73;;;;;;;10.44;66.99;99075.03;5092979;28;20819;-79
2021/05/22 04:17:49;;;;;;;2.37;0.77;;;;;;;10.51;67.18;99079.09;5092979;28;20215;-79
2021/05/22 04:20:15;;;;;;;2.00;0.80;;;;;;;10.50;67.55;99080.03;5093355;28;20303;-79
2021/05/22 04:22:40;;;;;;;1.87;0.90;;;;;;;10.48;66.72;99080.97;5092603;28;20213;-78
2021/05/22 04:25:07;;;;;;;2.53;0.77;;;;;;;10.45;67.14;99078.50;5093261;28;20199;-80
2021/05/22 04:27:34;;;;;;;1.13;0.50;;;;;;;10.49;67.40;99080.91;5092258;28;20208;-80
2021/05/22 04:30:00;;;;;;;3.50;0.80;;;;;;;10.47;67.40;99077.53;5092383;28;20223;-79
2021/05/22 04:32:26;;;;;;;1.50;0.60;;;;;;;10.51;67.12;99086.91;5092987;28;20239;-80
2021/05/22 04:34:52;;;;;;;1.10;0.60;;;;;;;10.45;67.63;99084.56;5091967;28;20230;-80
2021/05/22 04:37:18;;;;;;;1.60;0.60;;;;;;;10.49;67.07;99093.97;5094102;28;20211;-79
2021/05/22 04:39:44;;;;;;;1.13;0.60;;;;;;;10.58;67.87;99090.13;5092994;28;20234;-79
2021/05/22 04:42:10;;;;;;;1.10;0.60;;;;;;;10.34;68.11;99084.13;5093067;28;20331;-78
2021/05/22 04:44:36;;;;;;;2.50;0.97;;;;;;;10.37;68.26;99086.63;5092720;28;20237;-79
2021/05/22 04:47:01;;;;;;;1.37;0.60;;;;;;;10.51;68.79;99088.69;5092634;28;20287;-79
2021/05/22 04:49:28;;;;;;;1.03;0.60;;;;;;;10.53;68.58;99095.53;5092306;28;20228;-78
2021/05/22 04:51:55;;;;;;;1.80;0.83;;;;;;;10.56;68.40;99089.34;5093648;28;20312;-79
2021/05/22 04:54:21;;;;;;;2.30;0.70;;;;;;;10.60;68.09;99080.47;5092238;28;20260;-79
2021/05/22 04:56:46;;;;;;;0.70;0.60;;;;;;;10.71;68.32;99082.66;5093296;28;20203;-80
2021/05/22 04:59:12;;;;;;;2.07;0.80;;;;;;;10.64;68.23;99083.81;5092962;28;20317;-79
2021/05/22 05:01:40;;;;;;;1.57;0.70;;;;;;;10.72;68.35;99085.22;5093199;28;20253;-79
2021/05/22 05:04:06;;;;;;;1.53;0.60;;;;;;;10.70;68.31;99086.16;5092477;28;20203;-80
2021/05/22 05:06:33;;;;;;;1.23;0.63;;;;;;;10.65;68.42;99075.94;5092742;28;20203;-79
2021/05/22 05:08:59;;;;;;;1.70;0.80;;;;;;;10.51;68.62;99076.50;5093223;28;20475;-79
2021/05/22 05:11:25;;;;;;;1.47;1.10;;;;;;;10.58;69.28;99071.00;5093119;28;20718;-79
2021/05/22 05:13:51;;;;;;;1.77;0.70;;;;;;;10.69;68.63;99082.72;5092514;28;20219;-80
2021/05/22 05:16:17;;;;;;;2.10;1.00;;;;;;;10.78;68.67;99094.50;5092296;28;20211;-79
2021/05/22 05:18:43;;;;;;;1.57;0.60;;;;;;;10.69;68.19;99087.09;5092250;28;20584;-79
2021/05/22 05:21:09;;;;;;;2.53;0.87;;;;;;;10.60;68.29;99090.91;5091561;28;20207;-79
2021/05/22 05:23:36;;;;;;;0.93;0.90;;;;;;;10.47;68.73;99087.13;5092897;28;20631;-79
2021/05/22 05:26:03;;;;;;;1.30;0.70;;;;;;;10.60;68.82;99088.28;5092800;28;20206;-80
2021/05/22 05:28:29;;;;;;;3.13;0.77;;;;;;;10.74;68.46;99092.94;5092927;28;20210;-79
2021/05/22 05:30:55;;;;;;;1.17;0.80;;;;;;;10.83;68.01;99083.91;5091680;28;20202;-78
2021/05/22 05:33:21;;;;;;;2.47;0.97;;;;;;;10.89;67.62;99086.25;5091933;28;20231;-80
2021/05/22 05:35:49;;;;;;;1.50;0.70;;;;;;;10.96;68.24;99066.81;5092385;28;20226;-79
2021/05/22 05:38:14;;;;;;;1.70;0.67;;;;;;;11.08;67.49;99081.09;5091903;28;20255;-79
2021/05/22 05:40:41;;;;;;;2.93;0.87;;;;;;;11.04;67.42;99069.94;5092039;28;20212;-80
2021/05/22 05:43:10;;;;;;;1.60;0.67;;;;;;;11.04;67.13;99080.41;5090068;28;20582;-79
2021/05/22 05:45:36;;;;;;;2.17;0.77;;;;;;;11.18;66.54;99069.34;5091545;28;20508;-78
2021/05/22 05:48:04;;;;;;;2.33;0.80;;;;;;;11.22;66.06;99076.13;5091106;28;20676;-79
2021/05/22 05:50:30;;;;;;;2.30;1.00;;;;;;;11.19;65.59;99078.03;5090740;28;20226;-79
2021/05/22 05:52:56;;;;;;;1.00;0.70;;;;;;;11.18;65.74;99081.53;5090630;28;20218;-79
2021/05/22 05:55:22;;;;;;;2.70;1.00;;;;;;;11.20;65.56;99077.97;5090576;28;20250;-80
2021/05/22 05:57:49;;;;;;;1.63;0.90;;;;;;;11.30;66.19;99084.47;5091207;28;20206;-79
2021/05/22 06:00:16;;;;;;;1.77;1.07;;;;;;;11.43;65.63;99074.31;5090901;28;20220;-79
2021/05/22 06:02:42;;;;;;;2.47;0.80;;;;;;;11.39;63.82;99085.84;5091441;28;20201;-79
2021/05/22 06:05:09;;;;;;;2.87;1.30;;;;;;;11.44;64.21;99083.03;5091954;28;20206;-78
2021/05/22 06:07:35;;;;;;;2.53;0.70;;;;;;;11.54;63.71;99079.09;5090840;28;20582;-79
2021/05/22 06:10:01;;;;;;;2.97;1.03;;;;;;;11.54;63.26;99066.03;5090733;28;20237;-80
2021/05/22 06:12:27;;;;;;;4.63;1.10;;;;;;;11.59;63.20;99086.72;5091932;28;20668;-79
2021/05/22 06:14:56;;;;;;;4.23;0.90;;;;;;;11.60;62.34;99065.75;5090434;28;20233;-79
2021/05/22 06:17:22;;;;;;;2.07;0.70;;;;;;;11.68;63.37;99091.53;5091065;28;20206;-79
2021/05/22 06:19:48;;;;;;;3.47;1.20;;;;;;;11.74;63.46;99065.13;5091936;28;20331;-79
2021/05/22 06:22:14;;;;;;;3.87;1.20;;;;;;;11.66;63.07;99077.69;5092085;28;20225;-79
2021/05/22 06:24:40;;;;;;;2.20;0.70;;;;;;;11.70;62.56;99077.47;5091166;28;20785;-80
2021/05/22 06:27:06;;;;;;;3.13;0.80;;;;;;;11.78;63.15;99069.28;5091269;28;20200;-79
2021/05/22 06:29:32;;;;;;;3.50;1.07;;;;;;;11.89;62.56;99066.19;5091500;28;20420;-79
2021/05/22 06:31:59;;;;;;;3.27;0.80;;;;;;;11.92;62.97;99066.91;5091241;28;20211;-80
2021/05/22 06:34:25;;;;;;;2.13;0.90;;;;;;;12.04;61.90;99065.47;5090149;28;20234;-79
2021/05/22 06:36:51;;;;;;;1.80;0.93;;;;;;;12.18;61.79;99072.69;5091466;28;20217;-78
2021/05/22 06:39:16;;;;;;;1.93;0.90;;;;;;;12.26;60.64;99061.84;5091606;28;20320;-79
2021/05/22 06:41:42;;;;;;;4.33;1.10;;;;;;;12.32;60.29;99072.84;5091737;28;20525;-79
2021/05/22 06:44:12;;;;;;;1.80;0.80;;;;;;;12.44;60.29;99068.81;5090669;28;20286;-79
2021/05/22 06:46:47;;;;;;;1.90;0.80;;;;;;;12.44;59.96;99058.34;5092220;28;20210;-80
2021/05/22 06:49:14;;;;;;;3.03;1.10;;;;;;;12.53;60.12;99067.53;5090249;28;20234;-79
2021/05/22 06:51:41;;;;;;;3.77;0.97;;;;;;;12.52;59.68;99064.03;5091074;28;20272;-79
2021/05/22 06:54:07;;;;;;;2.30;0.80;;;;;;;12.40;59.88;99064.63;5091135;28;20205;-80
2021/05/22 06:56:33;;;;;;;3.33;1.10;;;;;;;12.36;60.05;99075.34;5094620;28;20207;-79
2021/05/22 06:58:58;;;;;;;2.53;1.00;;;;;;;12.56;60.16;99061.28;5095363;28;20232;-79
2021/05/22 07:01:25;;;;;;;2.50;0.83;;;;;;;12.73;60.55;99065.69;5095104;28;20238;-80
2021/05/22 07:03:50;;;;;;;2.47;0.80;;;;;;;12.79;58.36;99075.84;5095536;28;20401;-79
2021/05/22 07:06:17;;;;;;;2.93;0.70;;;;;;;12.93;57.88;99060.28;5094847;28;20623;-80
2021/05/22 07:08:43;;;;;;;2.23;0.90;;;;;;;12.78;58.80;99072.38;5094499;28;20222;-79
2021/05/22 07:11:09;;;;;;;1.50;0.87;;;;;;;12.78;58.95;99063.69;5094811;28;20215;-79
2021/05/22 07:13:35;;;;;;;2.83;1.00;;;;;;;12.59;58.28;99080.31;5094692;28;20217;-80
2021/05/22 07:16:01;;;;;;;1.97;0.67;;;;;;;12.52;59.16;99076.28;5093053;28;20552;-78
2021/05/22 07:18:26;;;;;;;2.33;0.90;;;;;;;12.63;59.83;99067.91;5094309;28;20201;-79
2021/05/22 07:20:53;;;;;;;1.13;0.60;;;;;;;12.68;60.07;99071.13;5093559;28;20222;-79
2021/05/22 07:23:19;;;;;;;2.73;0.87;;;;;;;12.51;57.99;99077.22;5092541;28;20200;-78
2021/05/22 07:25:45;;;;;;;3.40;0.73;;;;;;;12.11;59.04;99081.75;5094093;28;20912;-78
2021/05/22 07:28:14;;;;;;;2.27;0.80;;;;;;;12.04;58.47;99083.78;5092972;28;20289;-79
2021/05/22 07:30:40;;;;;;;2.30;0.80;;;;;;;12.15;59.67;99077.19;5093328;28;20216;-78
2021/05/22 07:33:06;;;;;;;3.30;0.90;;;;;;;12.38;59.82;99086.56;5092727;28;20208;-79
2021/05/22 07:35:32;;;;;;;3.70;0.80;;;;;;;12.31;58.63;99063.31;5092913;28;20230;-79
2021/05/22 07:37:58;;;;;;;1.67;0.63;;;;;;;12.32;59.03;99078.09;5093726;28;20471;-79
2021/05/22 07:40:25;;;;;;;1.83;0.80;;;;;;;12.20;58.04;99076.06;5093506;28;20979;-80
2021/05/22 07:42:51;;;;;;;3.07;0.80;;;;;;;12.35;59.27;99081.47;5093835;28;20705;-79
2021/05/22 07:45:18;;;;;;;2.37;0.90;;;;;;;12.44;59.03;99067.97;5092478;28;20209;-79
2021/05/22 07:47:44;;;;;;;3.07;1.20;;;;;;;12.52;59.54;99068.44;5091592;28;20712;-79
2021/05/22 07:50:10;;;;;;;1.93;0.70;;;;;;;12.56;58.13;99061.28;5092251;28;20330;-79
2021/05/22 07:52:37;;;;;;;1.97;0.80;;;;;;;12.47;57.98;99067.81;5094062;28;20210;-80
2021/05/22 07:55:04;;;;;;;3.53;0.97;;;;;;;12.43;59.58;99056.66;5094657;28;20273;-80
2021/05/22 07:57:31;;;;;;;4.80;1.03;;;;;;;12.57;58.72;99065.59;5091202;28;20204;-79
2021/05/22 07:59:57;;;;;;;4.43;1.37;;;;;;;12.70;58.26;99072.78;5090814;28;20277;-78
2021/05/22 08:02:23;;;;;;;3.00;0.67;;;;;;;12.71;57.84;99060.53;5091499;28;20325;-78
2021/05/22 08:04:49;;;;;;;1.47;0.63;;;;;;;12.58;57.52;99060.28;5088884;28;20288;-77
2021/05/22 08:07:15;;;;;;;5.50;0.80;;;;;;;12.59;57.98;99051.50;5090256;28;20207;-77
2021/05/22 08:09:41;;;;;;;2.03;0.80;;;;;;;12.81;58.87;99046.03;5089227;28;20219;-79
2021/05/22 08:12:07;;;;;;;2.33;0.60;;;;;;;12.82;58.31;99054.75;5088525;28;20203;-77
2021/05/22 08:14:34;;;;;;;3.70;0.90;;;;;;;12.90;58.82;99049.97;5088876;28;20222;-78
2021/05/22 08:17:00;;;;;;;2.30;0.60;;;;;;;13.13;57.30;99045.31;5088340;28;20206;-78
2021/05/22 08:19:25;;;;;;;2.20;0.80;;;;;;;13.53;58.07;99033.59;5088858;28;20404;-78
2021/05/22 08:21:51;;;;;;;1.83;0.60;;;;;;;13.83;56.87;99043.34;5091667;28;20234;-80
2021/05/22 08:24:17;;;;;;;4.23;0.90;;;;;;;14.01;56.39;99052.00;5092056;28;20283;-78
2021/05/22 08:26:43;;;;;;;6.63;0.93;;;;;;;14.00;56.07;99043.28;5089023;28;20337;-78
2021/05/22 08:29:10;;;;;;;2.47;0.80;;;;;;;14.04;55.77;99036.94;5089321;28;20253;-78
2021/05/22 08:31:37;;;;;;;9.73;1.00;;;;;;;13.85;55.03;99039.72;5086038;28;20239;-78
2021/05/22 08:34:03;;;;;;;3.53;0.90;;;;;;;13.83;55.70;99035.50;5087224;28;20207;-77
2021/05/22 08:36:30;;;;;;;2.30;0.90;;;;;;;13.82;56.31;99039.06;5088160;28;20764;-80
2021/05/22 08:38:56;;;;;;;1.93;0.70;;;;;;;13.55;55.33;99041.41;5087936;28;20593;-80
2021/05/22 08:41:22;;;;;;;1.93;0.77;;;;;;;13.66;56.02;99041.66;5088694;28;20584;-79
2021/05/22 08:43:48;;;;;;;4.17;1.00;;;;;;;13.57;56.62;99042.16;5087474;28;20207;-77
2021/05/22 08:46:16;;;;;;;3.03;0.83;;;;;;;13.30;55.06;99045.34;5087629;28;20927;-78
2021/05/22 08:48:43;;;;;;;3.87;1.00;;;;;;;13.26;55.54;99049.84;5087584;28;20638;-79
2021/05/22 08:51:10;;;;;;;3.10;0.80;;;;;;;13.13;56.69;99061.03;5092139;28;20223;-79
2021/05/22 08:53:36;;;;;;;2.10;0.80;;;;;;;13.05;57.35;99051.78;5092265;28;20214;-79
2021/05/22 08:56:03;;;;;;;1.53;0.60;;;;;;;12.94;58.25;99050.66;5087340;28;20230;-78
2021/05/22 08:58:29;;;;;;;2.10;0.70;;;;;;;12.94;61.98;99077.69;5089359;28;20207;-81
2021/05/22 09:00:57;;;;;;;1.47;0.70;;;;;;;12.42;62.30;99073.25;5089620;28;20207;-78
2021/05/22 09:03:23;;;;;;;2.43;0.87;;;;;;;12.33;63.58;99078.97;5088762;28;20920;-79
2021/05/22 09:05:50;;;;;;;2.87;0.77;;;;;;;12.26;67.10;99091.47;5087806;28;20749;-80
2021/05/22 09:08:17;;;;;;;0.60;0.60;;;;;;;12.16;65.55;99097.22;5087535;28;20207;-81
2021/05/22 09:10:44;;;;;;;1.40;0.80;;;;;;;12.19;66.04;99100.53;5084731;28;20203;-79
2021/05/22 09:13:12;;;;;;;2.80;1.20;;;;;;;12.13;67.89;99108.69;5083953;28;20210;-79
2021/05/22 09:15:40;;;;;;;1.67;1.17;;;;;;;12.14;67.59;99101.69;5084341;28;20599;-78
2021/05/22 09:18:10;;;;;;;3.53;0.70;;;;;;;11.96;67.61;99092.94;5085658;28;20346;-78
2021/05/22 09:20:37;;;;;;;1.73;0.70;;;;;;;11.99;69.40;99111.06;5085394;28;20230;-78
2021/05/22 09:23:07;;;;;;;0.83;0.70;;;;;;;11.91;69.31;99114.03;5085338;28;20267;-79
2021/05/22 09:25:35;;;;;;;1.93;0.70;;;;;;;12.06;69.16;99115.09;5085591;28;20210;-79
2021/05/22 09:28:02;;;;;;;1.60;0.70;;;;;;;12.04;68.63;99109.94;5085172;28;20221;-78
2021/05/22 09:30:30;;;;;;;1.63;0.70;;;;;;;11.97;69.11;99120.75;5086767;28;20233;-78
2021/05/22 09:32:56;;;;;;;1.83;0.60;;;;;;;12.31;70.01;99113.03;5085173;28;20723;-79
2021/05/22 09:35:24;;;;;;;1.67;0.60;;;;;;;12.48;68.06;99116.63;5085308;28;20590;-79
2021/05/22 09:37:52;;;;;;;1.80;0.70;;;;;;;12.66;67.12;99107.84;5086140;28;20681;-78
2021/05/22 09:40:21;;;;;;;2.77;0.83;;;;;;;13.02;68.37;99106.13;5085561;28;20415;-78
2021/05/22 09:42:47;;;;;;;1.63;0.70;;;;;;;12.94;64.40;99106.50;5087130;28;20662;-78
2021/05/22 09:45:28;;;;;;;1.67;0.53;;;;;;;12.93;63.20;99107.44;5085956;28;20213;-79
2021/05/22 09:47:58;;;;;;;2.40;1.00;;;;;;;13.05;63.57;99117.28;5084880;28;20214;-78
2021/05/22 09:50:27;;;;;;;3.00;0.90;;;;;;;13.18;63.83;99117.53;5084283;28;20319;-78
2021/05/22 09:52:53;;;;;;;2.10;0.70;;;;;;;12.98;61.75;99109.81;5085252;28;20199;-79
2021/05/22 09:55:22;;;;;;;1.23;0.70;;;;;;;12.92;62.70;99113.59;5086141;28;20226;-78
2021/05/22 09:57:49;;;;;;;1.17;0.60;;;;;;;12.89;62.72;99116.38;5085845;28;20620;-79
2021/05/22 10:00:17;;;;;;;1.93;0.63;;;;;;;12.99;64.26;99117.59;5086350;28;20233;-77
2021/05/22 10:02:44;;;;;;;1.63;0.67;;;;;;;12.90;62.04;99128.53;5085239;28;20572;-79
2021/05/22 10:05:15;;;;;;;1.57;0.80;;;;;;;12.94;64.34;99124.00;5085469;28;20231;-79
2021/05/22 10:07:41;;;;;;;1.37;0.60;;;;;;;13.01;64.62;99113.13;5086666;28;20222;-79
2021/05/22 10:10:08;;;;;;;1.83;0.67;;;;;;;12.96;63.78;99109.03;5086284;28;20227;-79
2021/05/22 10:12:37;;;;;;;1.43;0.53;;;;;;;12.82;64.87;99122.81;5085748;28;20626;-79
2021/05/22 10:15:04;;;;;;;1.00;0.60;;;;;;;12.68;64.76;99119.09;5085244;28;20231;-78
2021/05/22 10:17:30;;;;;;;2.83;0.67;;;;;;;12.63;65.75;99122.91;5086315;28;20204;-79
2021/05/22 10:19:57;;;;;;;1.23;0.63;;;;;;;12.77;66.96;99127.47;5085709;28;20759;-80
2021/05/22 10:22:23;;;;;;;2.60;0.80;;;;;;;12.91;67.56;99125.00;5086759;28;20218;-79
2021/05/22 10:24:52;;;;;;;1.60;0.83;;;;;;;12.68;65.56;99126.13;5087287;28;20205;-79
2021/05/22 10:27:19;;;;;;;1.97;0.73;;;;;;;12.80;67.18;99135.16;5086700;28;20263;-80
2021/05/22 10:29:46;;;;;;;2.07;0.90;;;;;;;12.81;65.25;99134.25;5090629;28;20266;-79
2021/05/22 10:32:19;;;;;;;0.73;0.73;;;;;;;12.75;64.67;99127.53;5090839;28;20219;-78
2021/05/22 10:34:48;;;;;;;1.67;0.60;;;;;;;12.71;67.06;99141.69;5090003;28;20242;-80
2021/05/22 10:37:43;;;;;;;1.43;0.70;;;;;;;12.24;66.51;99150.88;5091509;28;20229;-81
2021/05/22 10:40:11;;;;;;;6.23;4.80;;;;;;;12.25;69.80;99155.19;5090976;28;20647;-79
2021/05/22 10:42:55;;;;;;;1.80;1.70;;;;;;;12.05;69.62;99163.97;5090883;28;20206;-77
2021/05/22 10:45:32;;;;;;;1.10;1.00;;;;;;;11.85;70.71;99180.53;5090986;28;20226;-79
2021/05/22 10:48:01;;;;;;;4.57;1.00;;;;;;;12.02;74.02;99171.94;5089703;28;20202;-78
2021/05/22 10:50:35;;;;;;;2.30;0.60;;;;;;;12.05;72.95;99178.78;5089996;28;20259;-78
2021/05/22 10:53:23;;;;;;;1.30;0.90;;;;;;;12.03;73.26;99181.50;5089124;28;20241;-78
2021/05/22 10:56:07;;;;;;;0.90;0.70;;;;;;;11.88;75.65;99188.22;5088609;28;20608;-78
2021/05/22 10:58:34;;;;;;;0.80;0.60;;;;;;;12.01;75.08;99177.22;5088113;28;20273;-78
2021/05/22 11:01:30;;;;;;;1.40;0.70;;;;;;;12.10;74.81;99176.81;5088671;28;20204;-78
2021/05/22 11:04:32;;;;;;;1.60;1.00;;;;;;;12.22;74.29;99173.63;5088047;28;20682;-79
2021/05/22 11:07:00;;;;;;;0.60;0.47;;;;;;;12.22;74.68;99172.78;5089123;28;20487;-77
2021/05/22 11:09:43;;;;;;;1.27;0.60;;;;;;;11.97;73.27;99175.66;5089726;28;20548;-78
2021/05/22 11:12:48;;;;;;;0.80;0.67;;;;;;;12.27;73.32;99191.75;5088852;28;20211;-78
2021/05/22 11:15:46;;;;;;;1.73;0.87;;;;;;;12.22;73.93;99184.09;5089311;28;20712;-78
2021/05/22 11:18:15;;;;;;;5.83;5.33;;;;;;;12.39;73.04;99183.34;5087940;28;20787;-78
2021/05/22 11:20:44;;;;;;;2.43;2.00;;;;;;;12.50;73.73;99191.50;5088990;28;20222;-78
2021/05/22 11:23:11;;;;;;;1.43;1.33;;;;;;;12.09;73.45;99196.91;5088232;28;20207;-78
2021/05/22 11:25:45;;;;;;;0.97;0.60;;;;;;;12.44;75.20;99201.44;5090116;28;20568;-79
2021/05/22 11:28:17;;;;;;;1.00;1.00;;;;;;;12.36;75.12;99195.72;5089077;28;20213;-78
2021/05/22 11:30:45;;;;;;;0.80;0.80;;;;;;;12.60;74.80;99196.31;5090356;28;20215;-78
2021/05/22 11:33:27;;;;;;;0.90;0.70;;;;;;;12.77;74.75;99203.41;5087561;28;20677;-78
2021/05/22 11:35:54;;;;;;;3.37;0.60;;;;;;;12.43;73.49;99200.59;5087396;28;20258;-78